sensor_id;sensor_type;location;lat;lon;timestamp;pressure;altitude;pressure_sealevel;temperature;humidity
77662;BME280;69666;52.136;5.424;2023-05-19T00:01:18;102933.19;;;10.31;75.47
77662;BME280;69666;52.136;5.424;2023-05-19T00:03:52;102939.38;;;10.28;75.95
77662;BME280;69666;52.136;5.424;2023-05-19T00:06:22;102935.84;;;10.26;75.17
77662;BME280;69666;52.136;5.424;2023-05-19T00:08:59;102940.25;;;10.21;76.59
77662;BME280;69666;52.136;5.424;2023-05-19T00:11:27;102937.59;;;10.19;75.94
77662;BME280;69666;52.136;5.424;2023-05-19T00:13:57;102935.78;;;10.17;76.23
77662;BME280;69666;52.136;5.424;2023-05-19T00:16:25;102945.56;;;10.16;76.53
77662;BME280;69666;52.136;5.424;2023-05-19T00:18:53;102935.78;;;10.11;74.98
77662;BME280;69666;52.136;5.424;2023-05-19T00:21:20;102927.78;;;10.09;76.17
77662;BME280;69666;52.136;5.424;2023-05-19T00:23:46;102926.03;;;10.05;76.46
77662;BME280;69666;52.136;5.424;2023-05-19T00:26:13;102924.25;;;10.04;76.79
77662;BME280;69666;52.136;5.424;2023-05-19T00:28:40;102920.69;;;10.01;76.73
77662;BME280;69666;52.136;5.424;2023-05-19T00:31:06;102925.97;;;9.96;77.39
77662;BME280;69666;52.136;5.424;2023-05-19T00:33:33;102926.91;;;9.94;77.33
77662;BME280;69666;52.136;5.424;2023-05-19T00:36:00;102932.22;;;9.94;77.38
77662;BME280;69666;52.136;5.424;2023-05-19T00:38:32;102927.78;;;9.91;77.25
77662;BME280;69666;52.136;5.424;2023-05-19T00:41:00;102920.66;;;9.87;77.39
77662;BME280;69666;52.136;5.424;2023-05-19T00:43:27;102920.66;;;9.82;77.24
77662;BME280;69666;52.136;5.424;2023-05-19T00:45:56;102919.75;;;9.80;78.13
77662;BME280;69666;52.136;5.424;2023-05-19T00:48:24;102920.63;;;9.78;78.25
77662;BME280;69666;52.136;5.424;2023-05-19T00:50:52;102923.28;;;9.73;77.76
77662;BME280;69666;52.136;5.424;2023-05-19T00:53:22;102914.44;;;9.71;78.05
77662;BME280;69666;52.136;5.424;2023-05-19T00:55:49;102927.69;;;9.68;78.23
77662;BME280;69666;52.136;5.424;2023-05-19T00:58:17;102923.25;;;9.64;78.05
77662;BME280;69666;52.136;5.424;2023-05-19T01:00:44;102919.72;;;9.61;78.36
77662;BME280;69666;52.136;5.424;2023-05-19T01:03:11;102923.22;;;9.57;79.22
77662;BME280;69666;52.136;5.424;2023-05-19T01:05:40;102917.00;;;9.55;79.73
77662;BME280;69666;52.136;5.424;2023-05-19T01:08:34;102914.38;;;9.51;78.45
77662;BME280;69666;52.136;5.424;2023-05-19T01:11:02;102917.00;;;9.48;79.63
77662;BME280;69666;52.136;5.424;2023-05-19T01:13:30;102929.41;;;9.48;79.07
77662;BME280;69666;52.136;5.424;2023-05-19T01:16:08;102922.28;;;9.45;79.24
77662;BME280;69666;52.136;5.424;2023-05-19T01:19:00;102926.69;;;9.43;78.91
77662;BME280;69666;52.136;5.424;2023-05-19T01:32:37;102914.25;;;9.33;80.57
77662;BME280;69666;52.136;5.424;2023-05-19T01:35:08;102911.59;;;9.30;79.59
77662;BME280;69666;52.136;5.424;2023-05-19T01:37:38;102914.25;;;9.29;80.29
77662;BME280;69666;52.136;5.424;2023-05-19T01:40:07;102906.25;;;9.24;80.94
77662;BME280;69666;52.136;5.424;2023-05-19T01:42:33;102902.69;;;9.21;80.76
77662;BME280;69666;52.136;5.424;2023-05-19T01:45:03;102906.25;;;9.18;80.46
77662;BME280;69666;52.136;5.424;2023-05-19T01:47:41;102898.25;;;9.17;81.26
77662;BME280;69666;52.136;5.424;2023-05-19T01:50:09;102902.66;;;9.13;81.19
77662;BME280;69666;52.136;5.424;2023-05-19T01:52:36;102906.19;;;9.13;81.08
77662;BME280;69666;52.136;5.424;2023-05-19T01:55:03;102907.06;;;9.09;80.83
77662;BME280;69666;52.136;5.424;2023-05-19T01:57:54;102912.38;;;9.09;81.04
77662;BME280;69666;52.136;5.424;2023-05-19T02:04:00;102888.41;;;8.99;81.02
77662;BME280;69666;52.136;5.424;2023-05-19T02:06:47;102896.38;;;8.96;81.69
77662;BME280;69666;52.136;5.424;2023-05-19T02:09:38;102899.88;;;8.92;80.59
77662;BME280;69666;52.136;5.424;2023-05-19T02:12:33;102900.75;;;8.89;81.68
77662;BME280;69666;52.136;5.424;2023-05-19T02:15:13;102903.41;;;8.86;82.07
77662;BME280;69666;52.136;5.424;2023-05-19T02:17:43;102896.28;;;8.84;82.25
77662;BME280;69666;52.136;5.424;2023-05-19T02:20:14;102898.91;;;8.81;81.59
77662;BME280;69666;52.136;5.424;2023-05-19T02:22:41;102902.44;;;8.79;82.37
77662;BME280;69666;52.136;5.424;2023-05-19T02:25:08;102891.81;;;8.75;82.09
77662;BME280;69666;52.136;5.424;2023-05-19T02:27:36;102890.00;;;8.71;82.51
77662;BME280;69666;52.136;5.424;2023-05-19T02:30:04;102894.41;;;8.67;82.40
77662;BME280;69666;52.136;5.424;2023-05-19T02:32:31;102889.09;;;8.64;82.82
77662;BME280;69666;52.136;5.424;2023-05-19T02:34:58;102889.09;;;8.63;81.94
77662;BME280;69666;52.136;5.424;2023-05-19T02:37:25;102881.09;;;8.61;81.71
77662;BME280;69666;52.136;5.424;2023-05-19T02:39:54;102882.88;;;8.61;82.27
77662;BME280;69666;52.136;5.424;2023-05-19T02:42:20;102885.50;;;8.58;82.79
77662;BME280;69666;52.136;5.424;2023-05-19T02:44:47;102876.66;;;8.54;82.18
77662;BME280;69666;52.136;5.424;2023-05-19T02:47:14;102878.41;;;8.52;82.57
77662;BME280;69666;52.136;5.424;2023-05-19T02:49:41;102869.50;;;8.49;82.84
77662;BME280;69666;52.136;5.424;2023-05-19T02:52:08;102865.06;;;8.43;82.54
77662;BME280;69666;52.136;5.424;2023-05-19T02:54:34;102877.44;;;8.43;83.73
77662;BME280;69666;52.136;5.424;2023-05-19T02:57:01;102868.53;;;8.37;83.39
77662;BME280;69666;52.136;5.424;2023-05-19T02:59:28;102877.41;;;8.41;83.16
77662;BME280;69666;52.136;5.424;2023-05-19T03:01:58;102862.38;;;8.38;83.36
77662;BME280;69666;52.136;5.424;2023-05-19T03:04:25;102872.09;;;8.38;84.26
77662;BME280;69666;52.136;5.424;2023-05-19T03:06:52;102867.63;;;8.35;84.46
77662;BME280;69666;52.136;5.424;2023-05-19T03:09:20;102863.19;;;8.31;83.95
77662;BME280;69666;52.136;5.424;2023-05-19T03:11:46;102864.91;;;8.29;84.09
77662;BME280;69666;52.136;5.424;2023-05-19T03:14:13;102864.91;;;8.28;84.59
77662;BME280;69666;52.136;5.424;2023-05-19T03:16:40;102868.41;;;8.25;84.63
77662;BME280;69666;52.136;5.424;2023-05-19T03:19:08;102866.59;;;8.23;84.13
77662;BME280;69666;52.136;5.424;2023-05-19T03:21:35;102863.97;;;8.21;84.11
77662;BME280;69666;52.136;5.424;2023-05-19T03:24:02;102871.03;;;8.19;83.81
77662;BME280;69666;52.136;5.424;2023-05-19T03:26:28;102867.44;;;8.16;84.72
77662;BME280;69666;52.136;5.424;2023-05-19T03:28:55;102865.66;;;8.13;84.06
77662;BME280;69666;52.136;5.424;2023-05-19T03:31:21;102872.72;;;8.11;83.93
77662;BME280;69666;52.136;5.424;2023-05-19T03:33:48;102870.91;;;8.07;84.10
77662;BME280;69666;52.136;5.424;2023-05-19T03:36:17;102867.31;;;8.03;84.06
77662;BME280;69666;52.136;5.424;2023-05-19T03:38:44;102869.94;;;8.00;84.08
77662;BME280;69666;52.136;5.424;2023-05-19T03:41:10;102866.41;;;7.98;84.29
77662;BME280;69666;52.136;5.424;2023-05-19T03:43:37;102860.22;;;7.98;84.37
77662;BME280;69666;52.136;5.424;2023-05-19T03:46:04;102858.44;;;7.95;84.57
77662;BME280;69666;52.136;5.424;2023-05-19T03:48:30;102853.97;;;7.93;84.15
77662;BME280;69666;52.136;5.424;2023-05-19T03:50:57;102855.75;;;7.94;84.71
77662;BME280;69666;52.136;5.424;2023-05-19T03:53:24;102861.94;;;7.93;85.17
77662;BME280;69666;52.136;5.424;2023-05-19T03:55:51;102868.13;;;7.93;84.80
77662;BME280;69666;52.136;5.424;2023-05-19T03:58:18;102862.81;;;7.92;85.16
77662;BME280;69666;52.136;5.424;2023-05-19T04:00:44;102863.66;;;7.91;84.99
77662;BME280;69666;52.136;5.424;2023-05-19T04:03:11;102861.91;;;7.88;85.51
77662;BME280;69666;52.136;5.424;2023-05-19T04:05:38;102864.53;;;7.90;85.03
77662;BME280;69666;52.136;5.424;2023-05-19T04:08:05;102871.59;;;7.86;85.45
77662;BME280;69666;52.136;5.424;2023-05-19T04:10:31;102864.50;;;7.85;84.83
77662;BME280;69666;52.136;5.424;2023-05-19T04:12:58;102870.72;;;7.87;85.41
77662;BME280;69666;52.136;5.424;2023-05-19T04:15:25;102867.16;;;7.85;85.75
77662;BME280;69666;52.136;5.424;2023-05-19T04:17:51;102868.97;;;7.88;85.40
77662;BME280;69666;52.136;5.424;2023-05-19T04:20:18;102866.31;;;7.91;85.78
77662;BME280;69666;52.136;5.424;2023-05-19T04:22:45;102861.91;;;7.91;85.60
77662;BME280;69666;52.136;5.424;2023-05-19T04:25:11;102864.59;;;7.94;86.04
77662;BME280;69666;52.136;5.424;2023-05-19T04:27:38;102864.63;;;7.96;85.96
77662;BME280;69666;52.136;5.424;2023-05-19T04:30:05;102873.47;;;7.98;86.57
77662;BME280;69666;52.136;5.424;2023-05-19T04:32:32;102871.75;;;8.00;86.64
77662;BME280;69666;52.136;5.424;2023-05-19T04:34:58;102868.19;;;8.01;86.23
77662;BME280;69666;52.136;5.424;2023-05-19T04:37:25;102865.56;;;8.04;86.69
77662;BME280;69666;52.136;5.424;2023-05-19T04:39:52;102867.38;;;8.08;86.95
77662;BME280;69666;52.136;5.424;2023-05-19T04:42:19;102877.13;;;8.11;87.13
77662;BME280;69666;52.136;5.424;2023-05-19T04:44:46;102874.50;;;8.15;86.93
77662;BME280;69666;52.136;5.424;2023-05-19T04:47:14;102866.53;;;8.14;87.49
77662;BME280;69666;52.136;5.424;2023-05-19T04:49:41;102871.03;;;8.19;86.04
77662;BME280;69666;52.136;5.424;2023-05-19T04:52:09;102881.66;;;8.25;86.90
77662;BME280;69666;52.136;5.424;2023-05-19T04:54:38;102879.03;;;8.28;87.25
77662;BME280;69666;52.136;5.424;2023-05-19T04:57:05;102878.19;;;8.29;87.40
77662;BME280;69666;52.136;5.424;2023-05-19T04:59:32;102868.50;;;8.33;87.56
77662;BME280;69666;52.136;5.424;2023-05-19T05:01:58;102880.94;;;8.38;86.93
77662;BME280;69666;52.136;5.424;2023-05-19T05:04:25;102878.31;;;8.45;87.57
77662;BME280;69666;52.136;5.424;2023-05-19T05:06:52;102878.34;;;8.48;87.68
77662;BME280;69666;52.136;5.424;2023-05-19T05:09:18;102876.59;;;8.50;86.62
77662;BME280;69666;52.136;5.424;2023-05-19T05:11:45;102879.31;;;8.54;86.69
77662;BME280;69666;52.136;5.424;2023-05-19T05:14:12;102881.03;;;8.55;86.54
77662;BME280;69666;52.136;5.424;2023-05-19T05:16:39;102882.88;;;8.62;86.79
77662;BME280;69666;52.136;5.424;2023-05-19T05:19:06;102874.94;;;8.62;87.04
77662;BME280;69666;52.136;5.424;2023-05-19T05:21:33;102882.06;;;8.71;87.46
77662;BME280;69666;52.136;5.424;2023-05-19T05:24:00;102879.44;;;8.74;87.75
77662;BME280;69666;52.136;5.424;2023-05-19T05:26:29;102879.44;;;8.77;87.93
77662;BME280;69666;52.136;5.424;2023-05-19T05:28:56;102886.59;;;8.86;87.96
77662;BME280;69666;52.136;5.424;2023-05-19T05:31:23;102874.22;;;8.91;87.72
77662;BME280;69666;52.136;5.424;2023-05-19T05:33:50;102881.31;;;8.95;87.87
77662;BME280;69666;52.136;5.424;2023-05-19T05:36:16;102876.91;;;8.98;87.11
77662;BME280;69666;52.136;5.424;2023-05-19T05:38:43;102865.44;;;9.05;88.41
77662;BME280;69666;52.136;5.424;2023-05-19T05:41:09;102873.41;;;9.10;85.18
77662;BME280;69666;52.136;5.424;2023-05-19T05:43:36;102872.59;;;9.17;88.04
77662;BME280;69666;52.136;5.424;2023-05-19T05:46:03;102881.44;;;9.22;87.60
77662;BME280;69666;52.136;5.424;2023-05-19T05:48:30;102881.47;;;9.31;87.93
77662;BME280;69666;52.136;5.424;2023-05-19T05:50:58;102879.75;;;9.44;87.32
77662;BME280;69666;52.136;5.424;2023-05-19T05:53:29;102882.50;;;9.62;88.25
77662;BME280;69666;52.136;5.424;2023-05-19T05:55:57;102883.44;;;9.87;89.06
77662;BME280;69666;52.136;5.424;2023-05-19T05:58:24;102885.28;;;10.18;86.86
77662;BME280;69666;52.136;5.424;2023-05-19T06:00:51;102874.63;;;10.55;86.19
77662;BME280;69666;52.136;5.424;2023-05-19T06:03:18;102877.22;;;10.85;85.51
77662;BME280;69666;52.136;5.424;2023-05-19T06:05:49;102868.28;;;11.06;84.92
77662;BME280;69666;52.136;5.424;2023-05-19T06:08:16;102873.53;;;11.30;84.38
77662;BME280;69666;52.136;5.424;2023-05-19T06:10:43;102863.59;;;11.60;83.63
77662;BME280;69666;52.136;5.424;2023-05-19T06:13:12;102875.88;;;11.96;83.32
77662;BME280;69666;52.136;5.424;2023-05-19T06:15:41;102871.16;;;12.30;81.70
77662;BME280;69666;52.136;5.424;2023-05-19T06:18:08;102873.53;;;12.62;80.49
77662;BME280;69666;52.136;5.424;2023-05-19T06:20:34;102872.34;;;12.92;81.06
77662;BME280;69666;52.136;5.424;2023-05-19T06:23:01;102874.66;;;13.25;78.42
77662;BME280;69666;52.136;5.424;2023-05-19T06:25:28;102866.38;;;13.45;78.48
77662;BME280;69666;52.136;5.424;2023-05-19T06:27:56;102864.31;;;13.64;77.48
77662;BME280;69666;52.136;5.424;2023-05-19T06:30:22;102854.13;;;13.90;76.82
77662;BME280;69666;52.136;5.424;2023-05-19T06:32:49;102851.88;;;14.18;76.81
77662;BME280;69666;52.136;5.424;2023-05-19T06:35:16;102857.72;;;14.46;74.92
77662;BME280;69666;52.136;5.424;2023-05-19T06:37:42;102858.88;;;14.79;74.19
77662;BME280;69666;52.136;5.424;2023-05-19T06:40:09;102854.56;;;15.15;73.18
77662;BME280;69666;52.136;5.424;2023-05-19T06:42:36;102858.41;;;15.46;72.62
77662;BME280;69666;52.136;5.424;2023-05-19T06:45:03;102859.44;;;15.79;70.57
77662;BME280;69666;52.136;5.424;2023-05-19T06:47:37;102856.94;;;16.10;69.55
77662;BME280;69666;52.136;5.424;2023-05-19T06:50:09;102855.31;;;16.38;68.44
77662;BME280;69666;52.136;5.424;2023-05-19T06:52:36;102857.34;;;16.64;67.69
77662;BME280;69666;52.136;5.424;2023-05-19T06:55:03;102851.13;;;16.95;66.61
77662;BME280;69666;52.136;5.424;2023-05-19T06:57:30;102847.78;;;17.18;65.60
77662;BME280;69666;52.136;5.424;2023-05-19T06:59:56;102850.75;;;17.38;64.58
77662;BME280;69666;52.136;5.424;2023-05-19T07:02:23;102851.84;;;17.62;65.43
77662;BME280;69666;52.136;5.424;2023-05-19T07:04:50;102852.28;;;17.76;63.36
77662;BME280;69666;52.136;5.424;2023-05-19T07:07:25;102853.53;;;17.94;63.93
77662;BME280;69666;52.136;5.424;2023-05-19T07:09:52;102855.66;;;18.10;62.63
77662;BME280;69666;52.136;5.424;2023-05-19T07:12:19;102846.75;;;18.08;62.64
77662;BME280;69666;52.136;5.424;2023-05-19T07:14:46;102852.41;;;18.01;61.11
77662;BME280;69666;52.136;5.424;2023-05-19T07:17:15;102845.16;;;18.03;60.44
77662;BME280;69666;52.136;5.424;2023-05-19T07:19:42;102841.94;;;18.18;62.17
77662;BME280;69666;52.136;5.424;2023-05-19T07:22:08;102844.25;;;18.29;59.83
77662;BME280;69666;52.136;5.424;2023-05-19T07:24:35;102837.94;;;18.30;60.67
77662;BME280;69666;52.136;5.424;2023-05-19T07:27:02;102846.75;;;18.35;60.70
77662;BME280;69666;52.136;5.424;2023-05-19T07:29:28;102838.91;;;18.53;55.95
77662;BME280;69666;52.136;5.424;2023-05-19T07:31:55;102845.28;;;18.77;56.43
77662;BME280;69666;52.136;5.424;2023-05-19T07:34:26;102841.38;;;18.86;56.66
77662;BME280;69666;52.136;5.424;2023-05-19T07:36:52;102844.34;;;19.03;54.84
77662;BME280;69666;52.136;5.424;2023-05-19T07:39:19;102846.09;;;19.27;56.31
77662;BME280;69666;52.136;5.424;2023-05-19T07:41:49;102849.25;;;19.39;54.53
77662;BME280;69666;52.136;5.424;2023-05-19T07:44:22;102849.06;;;19.45;54.30
77662;BME280;69666;52.136;5.424;2023-05-19T07:47:08;102841.22;;;19.37;54.43
77662;BME280;69666;52.136;5.424;2023-05-19T07:49:38;102845.34;;;19.24;52.67
77662;BME280;69666;52.136;5.424;2023-05-19T07:52:06;102835.53;;;19.21;53.89
77662;BME280;69666;52.136;5.424;2023-05-19T07:54:33;102838.59;;;19.36;54.67
77662;BME280;69666;52.136;5.424;2023-05-19T07:57:00;102830.75;;;19.53;51.45
77662;BME280;69666;52.136;5.424;2023-05-19T07:59:33;102828.09;;;19.51;52.47
77662;BME280;69666;52.136;5.424;2023-05-19T08:02:06;102828.19;;;19.72;52.54
77662;BME280;69666;52.136;5.424;2023-05-19T08:04:38;102835.28;;;19.96;53.49
77662;BME280;69666;52.136;5.424;2023-05-19T08:07:30;102824.22;;;20.02;52.39
77662;BME280;69666;52.136;5.424;2023-05-19T08:09:56;102809.47;;;20.11;51.30
77662;BME280;69666;52.136;5.424;2023-05-19T08:12:23;102818.06;;;20.20;50.32
77662;BME280;69666;52.136;5.424;2023-05-19T08:14:50;102815.88;;;20.50;51.82
77662;BME280;69666;52.136;5.424;2023-05-19T08:17:17;102800.53;;;20.71;52.00
77662;BME280;69666;52.136;5.424;2023-05-19T08:19:44;102812.66;;;21.01;47.53
77662;BME280;69666;52.136;5.424;2023-05-19T08:22:11;102811.91;;;21.18;48.33
77662;BME280;69666;52.136;5.424;2023-05-19T08:24:40;102806.19;;;21.43;47.39
77662;BME280;69666;52.136;5.424;2023-05-19T08:27:14;102807.84;;;21.64;47.32
77662;BME280;69666;52.136;5.424;2023-05-19T08:29:42;102804.34;;;21.81;46.55
77662;BME280;69666;52.136;5.424;2023-05-19T08:32:24;102792.53;;;22.01;48.25
77662;BME280;69666;52.136;5.424;2023-05-19T08:34:51;102794.94;;;22.24;47.22
77662;BME280;69666;52.136;5.424;2023-05-19T08:37:27;102787.84;;;22.04;45.48
77662;BME280;69666;52.136;5.424;2023-05-19T08:40:15;102790.06;;;22.13;44.83
77662;BME280;69666;52.136;5.424;2023-05-19T08:42:44;102785.44;;;21.97;44.27
77662;BME280;69666;52.136;5.424;2023-05-19T08:45:11;102785.03;;;22.06;39.86
77662;BME280;69666;52.136;5.424;2023-05-19T08:47:40;102777.25;;;22.17;42.57
77662;BME280;69666;52.136;5.424;2023-05-19T08:50:07;102780.66;;;22.20;40.57
77662;BME280;69666;52.136;5.424;2023-05-19T08:52:54;102775.06;;;22.24;40.11
77662;BME280;69666;52.136;5.424;2023-05-19T08:55:39;102770.50;;;22.41;39.35
77662;BME280;69666;52.136;5.424;2023-05-19T08:58:08;102772.56;;;22.53;39.45
77662;BME280;69666;52.136;5.424;2023-05-19T09:00:36;102761.72;;;22.71;41.97
77662;BME280;69666;52.136;5.424;2023-05-19T09:03:03;102766.41;;;22.84;36.68
77662;BME280;69666;52.136;5.424;2023-05-19T09:05:48;102766.38;;;23.02;39.23
77662;BME280;69666;52.136;5.424;2023-05-19T09:08:15;102768.91;;;23.20;40.52
77662;BME280;69666;52.136;5.424;2023-05-19T09:10:41;102761.88;;;23.01;38.20
77662;BME280;69666;52.136;5.424;2023-05-19T09:13:08;102762.28;;;22.93;39.05
77662;BME280;69666;52.136;5.424;2023-05-19T09:15:37;102763.69;;;22.84;38.68
77662;BME280;69666;52.136;5.424;2023-05-19T09:18:12;102759.88;;;22.71;38.24
77662;BME280;69666;52.136;5.424;2023-05-19T09:20:40;102755.81;;;22.45;37.37
77662;BME280;69666;52.136;5.424;2023-05-19T09:23:15;102753.00;;;22.64;40.07
77662;BME280;69666;52.136;5.424;2023-05-19T09:25:52;102763.75;;;22.83;39.30
77662;BME280;69666;52.136;5.424;2023-05-19T09:28:27;102759.25;;;22.99;35.88
77662;BME280;69666;52.136;5.424;2023-05-19T09:31:03;102756.66;;;23.13;36.83
77662;BME280;69666;52.136;5.424;2023-05-19T09:33:33;102754.63;;;23.17;36.47
77662;BME280;69666;52.136;5.424;2023-05-19T09:36:01;102753.34;;;23.24;38.01
77662;BME280;69666;52.136;5.424;2023-05-19T09:38:28;102754.81;;;23.45;37.49
77662;BME280;69666;52.136;5.424;2023-05-19T09:40:57;102747.22;;;23.68;40.62
77662;BME280;69666;52.136;5.424;2023-05-19T09:43:31;102747.50;;;23.93;39.19
77662;BME280;69666;52.136;5.424;2023-05-19T09:46:04;102746.59;;;24.08;35.05
77662;BME280;69666;52.136;5.424;2023-05-19T09:48:32;102750.75;;;23.99;37.26
77662;BME280;69666;52.136;5.424;2023-05-19T09:51:00;102748.34;;;24.09;36.93
77662;BME280;69666;52.136;5.424;2023-05-19T09:53:31;102743.47;;;24.00;37.44
77662;BME280;69666;52.136;5.424;2023-05-19T09:56:00;102741.91;;;23.80;37.32
77662;BME280;69666;52.136;5.424;2023-05-19T09:58:30;102745.19;;;23.55;36.37
77662;BME280;69666;52.136;5.424;2023-05-19T10:01:00;102742.72;;;23.35;36.83
77662;BME280;69666;52.136;5.424;2023-05-19T10:03:27;102741.72;;;23.05;35.35
77662;BME280;69666;52.136;5.424;2023-05-19T10:05:55;102748.25;;;22.85;34.95
77662;BME280;69666;52.136;5.424;2023-05-19T10:08:23;102747.56;;;22.81;37.00
77662;BME280;69666;52.136;5.424;2023-05-19T10:10:52;102739.88;;;22.89;40.38
77662;BME280;69666;52.136;5.424;2023-05-19T10:13:20;102741.84;;;23.03;37.21
77662;BME280;69666;52.136;5.424;2023-05-19T10:15:48;102732.88;;;23.17;37.91
77662;BME280;69666;52.136;5.424;2023-05-19T10:18:25;102734.31;;;23.24;37.55
77662;BME280;69666;52.136;5.424;2023-05-19T10:20:53;102732.03;;;23.32;38.13
77662;BME280;69666;52.136;5.424;2023-05-19T10:23:20;102728.31;;;23.49;36.96
77662;BME280;69666;52.136;5.424;2023-05-19T10:25:50;102720.13;;;23.50;37.01
77662;BME280;69666;52.136;5.424;2023-05-19T10:28:18;102718.53;;;23.62;37.62
77662;BME280;69666;52.136;5.424;2023-05-19T10:30:53;102720.25;;;23.79;38.27
77662;BME280;69666;52.136;5.424;2023-05-19T10:36:45;102715.16;;;23.88;35.55
77662;BME280;69666;52.136;5.424;2023-05-19T10:39:31;102711.34;;;23.91;36.31
77662;BME280;69666;52.136;5.424;2023-05-19T10:42:10;102713.41;;;24.01;36.23
77662;BME280;69666;52.136;5.424;2023-05-19T10:47:24;102707.31;;;24.12;37.49
77662;BME280;69666;52.136;5.424;2023-05-19T10:49:52;102709.84;;;24.01;34.80
77662;BME280;69666;52.136;5.424;2023-05-19T10:52:21;102698.69;;;23.76;36.16
77662;BME280;69666;52.136;5.424;2023-05-19T10:54:48;102706.19;;;23.56;36.02
77662;BME280;69666;52.136;5.424;2023-05-19T10:57:16;102700.34;;;23.78;38.68
77662;BME280;69666;52.136;5.424;2023-05-19T10:59:43;102705.41;;;23.84;35.36
77662;BME280;69666;52.136;5.424;2023-05-19T11:05:15;102700.47;;;23.91;38.14
77662;BME280;69666;52.136;5.424;2023-05-19T11:07:57;102699.19;;;23.82;38.31
77662;BME280;69666;52.136;5.424;2023-05-19T11:10:30;102696.75;;;23.78;36.72
77662;BME280;69666;52.136;5.424;2023-05-19T11:12:57;102687.47;;;23.66;37.15
77662;BME280;69666;52.136;5.424;2023-05-19T11:15:25;102695.97;;;23.60;35.80
77662;BME280;69666;52.136;5.424;2023-05-19T11:17:53;102694.81;;;23.48;35.14
77662;BME280;69666;52.136;5.424;2023-05-19T11:20:27;102689.44;;;23.33;35.62
77662;BME280;69666;52.136;5.424;2023-05-19T11:23:05;102698.00;;;23.09;34.71
77662;BME280;69666;52.136;5.424;2023-05-19T11:25:47;102693.53;;;23.08;33.48
77662;BME280;69666;52.136;5.424;2023-05-19T11:28:16;102684.00;;;23.01;34.10
77662;BME280;69666;52.136;5.424;2023-05-19T11:30:47;102689.25;;;22.88;34.36
77662;BME280;69666;52.136;5.424;2023-05-19T11:33:19;102687.56;;;22.86;35.22
77662;BME280;69666;52.136;5.424;2023-05-19T11:35:52;102683.19;;;22.83;34.50
77662;BME280;69666;52.136;5.424;2023-05-19T11:38:19;102682.84;;;22.89;34.96
77662;BME280;69666;52.136;5.424;2023-05-19T11:40:47;102682.50;;;22.96;37.16
77662;BME280;69666;52.136;5.424;2023-05-19T11:43:15;102677.75;;;22.83;35.46
77662;BME280;69666;52.136;5.424;2023-05-19T11:45:42;102675.00;;;22.68;36.74
77662;BME280;69666;52.136;5.424;2023-05-19T11:48:11;102683.09;;;22.85;39.29
77662;BME280;69666;52.136;5.424;2023-05-19T11:50:41;102670.06;;;22.91;36.42
77662;BME280;69666;52.136;5.424;2023-05-19T11:53:12;102669.88;;;22.79;36.30
77662;BME280;69666;52.136;5.424;2023-05-19T11:55:47;102665.13;;;22.82;38.53
77662;BME280;69666;52.136;5.424;2023-05-19T11:58:15;102664.44;;;22.79;36.55
77662;BME280;69666;52.136;5.424;2023-05-19T12:00:43;102659.13;;;22.60;34.66
77662;BME280;69666;52.136;5.424;2023-05-19T12:03:13;102672.44;;;22.32;31.96
77662;BME280;69666;52.136;5.424;2023-05-19T12:05:46;102668.41;;;22.23;32.68
77662;BME280;69666;52.136;5.424;2023-05-19T12:08:17;102674.84;;;22.20;31.48
77662;BME280;69666;52.136;5.424;2023-05-19T12:10:47;102669.91;;;22.11;33.10
77662;BME280;69666;52.136;5.424;2023-05-19T12:13:15;102665.94;;;22.01;33.91
77662;BME280;69666;52.136;5.424;2023-05-19T12:15:42;102660.28;;;22.06;33.58
77662;BME280;69666;52.136;5.424;2023-05-19T12:18:09;102667.66;;;21.85;33.11
77662;BME280;69666;52.136;5.424;2023-05-19T12:20:36;102668.66;;;21.84;31.99
77662;BME280;69666;52.136;5.424;2023-05-19T12:23:24;102657.28;;;21.76;33.41
77662;BME280;69666;52.136;5.424;2023-05-19T12:26:12;102666.50;;;21.73;34.44
77662;BME280;69666;52.136;5.424;2023-05-19T12:28:39;102661.44;;;21.66;33.74
77662;BME280;69666;52.136;5.424;2023-05-19T12:31:06;102663.44;;;21.62;34.58
77662;BME280;69666;52.136;5.424;2023-05-19T12:33:33;102652.03;;;21.56;36.44
77662;BME280;69666;52.136;5.424;2023-05-19T12:36:01;102659.13;;;21.58;38.32
77662;BME280;69666;52.136;5.424;2023-05-19T12:38:28;102638.94;;;21.64;37.95
77662;BME280;69666;52.136;5.424;2023-05-19T12:40:57;102646.13;;;21.65;38.43
77662;BME280;69666;52.136;5.424;2023-05-19T12:43:25;102640.09;;;21.60;42.57
77662;BME280;69666;52.136;5.424;2023-05-19T12:45:52;102635.78;;;21.56;39.54
77662;BME280;69666;52.136;5.424;2023-05-19T12:48:22;102637.84;;;21.51;39.51
77662;BME280;69666;52.136;5.424;2023-05-19T12:50:51;102634.50;;;21.45;37.76
77662;BME280;69666;52.136;5.424;2023-05-19T12:53:19;102633.38;;;21.49;40.47
77662;BME280;69666;52.136;5.424;2023-05-19T12:55:46;102633.47;;;21.48;40.08
77662;BME280;69666;52.136;5.424;2023-05-19T12:58:14;102632.91;;;21.41;39.32
77662;BME280;69666;52.136;5.424;2023-05-19T13:00:44;102634.63;;;21.42;39.22
77662;BME280;69666;52.136;5.424;2023-05-19T13:03:17;102633.69;;;21.43;38.54
77662;BME280;69666;52.136;5.424;2023-05-19T13:05:47;102629.41;;;21.39;39.21
77662;BME280;69666;52.136;5.424;2023-05-19T13:08:19;102627.84;;;21.34;38.97
77662;BME280;69666;52.136;5.424;2023-05-19T13:10:46;102636.22;;;21.29;38.42
77662;BME280;69666;52.136;5.424;2023-05-19T13:13:15;102623.63;;;21.28;38.81
77662;BME280;69666;52.136;5.424;2023-05-19T13:15:45;102625.81;;;21.39;39.76
77662;BME280;69666;52.136;5.424;2023-05-19T13:18:15;102622.28;;;21.37;42.42
77662;BME280;69666;52.136;5.424;2023-05-19T13:20:44;102628.72;;;21.34;41.68
77662;BME280;69666;52.136;5.424;2023-05-19T13:23:12;102628.97;;;21.30;41.51
77662;BME280;69666;52.136;5.424;2023-05-19T13:25:40;102630.97;;;21.26;39.42
77662;BME280;69666;52.136;5.424;2023-05-19T13:28:07;102621.28;;;21.21;39.47
77662;BME280;69666;52.136;5.424;2023-05-19T13:30:36;102618.44;;;21.24;42.41